Time;durP1;ratioP1;P1;durP2;ratioP2;P2;SDS_P1;SDS_P2;PMS_P1;PMS_P2;Temp;Humidity;BMP_temperature;BMP_pressure;BME280_temperature;BME280_humidity;BME280_pressure;Samples;Min_cycle;Max_cycle;Signal;HPM_P1;HPM_P2
2022/12/10 00:00:42;;;;;;;99.35;48.97;;;;;;;;;;4754290;30;20496;-72
2022/12/10 00:03:08;;;;;;;110.65;52.13;;;;;;;;;;4754439;30;20048;-71
2022/12/10 00:05:35;;;;;;;174.27;73.03;;;;;;;;;;4754107;30;20182;-72
2022/12/10 00:08:01;;;;;;;99.95;47.70;;;;;;;;;;4754363;30;20052;-71
2022/12/10 00:10:27;;;;;;;178.02;73.57;;;;;;;;;;4754312;30;20044;-71
2022/12/10 00:12:53;;;;;;;250.73;101.55;;;;;;;;;;4754577;30;20056;-71
2022/12/10 00:15:19;;;;;;;229.13;91.60;;;;;;;;;;4754053;30;20048;-71
2022/12/10 00:17:46;;;;;;;322.77;122.78;;;;;;;;;;4753740;30;20056;-71
2022/12/10 00:20:12;;;;;;;391.02;149.88;;;;;;;;;;4753847;30;20101;-71
2022/12/10 00:22:38;;;;;;;382.23;147.45;;;;;;;;;;4753517;30;20056;-71
2022/12/10 00:25:04;;;;;;;286.38;115.57;;;;;;;;;;4754384;30;20110;-71
2022/12/10 00:27:31;;;;;;;190.32;83.18;;;;;;;;;;4754114;30;20059;-71
2022/12/10 00:29:57;;;;;;;207.25;87.57;;;;;;;;;;4754310;30;20127;-71
2022/12/10 00:32:23;;;;;;;54.40;27.33;;;;;;;;;;4754150;30;20127;-71
2022/12/10 00:34:49;;;;;;;206.23;85.63;;;;;;;;;;4754033;30;20127;-71
2022/12/10 00:37:15;;;;;;;109.90;50.85;;;;;;;;;;4753529;30;20056;-71
2022/12/10 00:39:41;;;;;;;78.70;38.55;;;;;;;;;;4753708;30;20047;-71
2022/12/10 00:42:07;;;;;;;90.90;41.85;;;;;;;;;;4754137;30;20052;-71
2022/12/10 00:44:33;;;;;;;53.83;27.50;;;;;;;;;;4753913;30;20055;-71
2022/12/10 00:47:00;;;;;;;47.08;25.40;;;;;;;;;;4753764;30;20491;-71
2022/12/10 00:49:26;;;;;;;38.50;21.35;;;;;;;;;;4754161;30;20050;-71
2022/12/10 00:51:52;;;;;;;52.67;26.98;;;;;;;;;;4753964;30;20516;-72
2022/12/10 00:54:18;;;;;;;50.42;29.65;;;;;;;;;;4754029;30;20040;-71
2022/12/10 00:56:44;;;;;;;32.65;17.52;;;;;;;;;;4754044;30;20086;-71
2022/12/10 00:59:10;;;;;;;28.40;17.75;;;;;;;;;;4753780;30;20051;-71
2022/12/10 01:01:38;;;;;;;19.23;13.20;;;;;;;;;;4753827;30;20056;-71
2022/12/10 01:04:06;;;;;;;22.90;13.63;;;;;;;;;;4753474;30;20064;-71
2022/12/10 01:06:36;;;;;;;19.15;12.10;;;;;;;;;;4753560;30;20046;-71
2022/12/10 01:09:04;;;;;;;15.50;10.23;;;;;;;;;;4753741;30;20109;-71
2022/12/10 01:11:32;;;;;;;16.33;11.02;;;;;;;;;;4753513;30;20477;-72
2022/12/10 01:13:58;;;;;;;14.45;9.45;;;;;;;;;;4753701;30;20067;-71
2022/12/10 01:16:25;;;;;;;19.35;12.63;;;;;;;;;;4753622;30;20047;-71
2022/12/10 01:18:54;;;;;;;11.82;8.10;;;;;;;;;;4753692;30;20048;-71
2022/12/10 01:21:20;;;;;;;10.27;7.57;;;;;;;;;;4753340;30;20051;-71
2022/12/10 01:23:47;;;;;;;10.77;7.60;;;;;;;;;;4753244;30;20044;-71
2022/12/10 01:26:17;;;;;;;10.07;7.60;;;;;;;;;;4753672;30;20113;-71
2022/12/10 01:28:43;;;;;;;9.38;6.53;;;;;;;;;;4753321;30;20527;-71
2022/12/10 01:31:11;;;;;;;7.22;5.65;;;;;;;;;;4756352;30;20414;-71
2022/12/10 01:33:38;;;;;;;6.10;4.45;;;;;;;;;;4756925;30;20058;-71
2022/12/10 01:36:05;;;;;;;7.05;4.53;;;;;;;;;;4756898;30;20048;-71
2022/12/10 01:38:31;;;;;;;5.95;4.43;;;;;;;;;;4756601;30;20060;-71
2022/12/10 01:40:58;;;;;;;6.47;4.43;;;;;;;;;;4756794;30;20076;-71
2022/12/10 01:43:24;;;;;;;6.22;3.80;;;;;;;;;;4757354;30;20048;-71
2022/12/10 01:45:50;;;;;;;5.18;2.95;;;;;;;;;;4756460;30;20056;-71
2022/12/10 01:48:16;;;;;;;5.03;3.75;;;;;;;;;;4757432;30;20059;-71
2022/12/10 01:50:42;;;;;;;5.40;3.95;;;;;;;;;;4756629;30;20481;-71
2022/12/10 01:53:09;;;;;;;5.40;3.63;;;;;;;;;;4755536;30;20469;-71
2022/12/10 01:55:40;;;;;;;4.57;3.47;;;;;;;;;;4756280;30;20044;-71
2022/12/10 01:58:06;;;;;;;4.70;3.35;;;;;;;;;;4756280;30;20063;-71
2022/12/10 02:00:34;;;;;;;4.28;2.97;;;;;;;;;;4756492;30;20075;-71
2022/12/10 02:03:05;;;;;;;4.60;3.28;;;;;;;;;;4756761;30;20052;-71
2022/12/10 02:05:40;;;;;;;6.65;4.07;;;;;;;;;;4756632;30;20397;-71
2022/12/10 02:08:35;;;;;;;3.60;2.75;;;;;;;;;;4756099;30;20109;-71
2022/12/10 02:11:14;;;;;;;3.00;2.47;;;;;;;;;;4693258;30;20049;-71
2022/12/10 02:13:42;;;;;;;3.28;2.17;;;;;;;;;;4756772;30;20059;-71
2022/12/10 02:16:27;;;;;;;3.20;2.65;;;;;;;;;;4755950;30;20523;-71
2022/12/10 02:19:07;;;;;;;2.60;2.13;;;;;;;;;;4756391;30;20143;-71
2022/12/10 02:21:35;;;;;;;3.17;2.28;;;;;;;;;;4755694;30;20052;-71
2022/12/10 02:24:04;;;;;;;3.67;2.70;;;;;;;;;;4756330;30;20054;-71
2022/12/10 02:26:35;;;;;;;2.85;2.20;;;;;;;;;;4755684;30;20104;-71
2022/12/10 02:29:08;;;;;;;2.40;1.92;;;;;;;;;;4756299;30;20082;-71
2022/12/10 02:31:34;;;;;;;4.18;2.53;;;;;;;;;;4755563;30;20047;-72
2022/12/10 02:34:02;;;;;;;3.33;2.50;;;;;;;;;;4755920;30;20054;-72
2022/12/10 02:36:33;;;;;;;3.20;2.70;;;;;;;;;;4755548;30;20404;-72
2022/12/10 02:39:00;;;;;;;3.35;2.80;;;;;;;;;;4755543;30;20574;-72
2022/12/10 02:41:28;;;;;;;5.93;2.15;;;;;;;;;;4755510;30;20063;-71
2022/12/10 02:43:57;;;;;;;2.80;2.30;;;;;;;;;;4755808;30;20101;-72
2022/12/10 02:46:25;;;;;;;2.95;2.55;;;;;;;;;;4755826;30;20063;-72
2022/12/10 02:48:51;;;;;;;3.15;2.53;;;;;;;;;;4755923;30;20063;-72
2022/12/10 02:51:17;;;;;;;2.72;2.42;;;;;;;;;;4755078;30;20086;-71
2022/12/10 02:53:44;;;;;;;3.15;2.83;;;;;;;;;;4754923;30;20608;-71
2022/12/10 02:56:49;;;;;;;2.60;2.40;;;;;;;;;;4755245;30;20043;-71
2022/12/10 02:59:15;;;;;;;3.42;2.67;;;;;;;;;;4683100;30;20118;-71
2022/12/10 03:01:56;;;;;;;4.50;2.75;;;;;;;;;;4683220;30;20050;-71
2022/12/10 03:04:22;;;;;;;;;;;;;;;;;;4725335;30;20040;-71
2022/12/10 03:06:52;;;;;;;5.22;2.75;;;;;;;;;;4754939;30;19963;-71
2022/12/10 03:09:39;;;;;;;2.92;2.65;;;;;;;;;;4755136;30;20048;-71
2022/12/10 03:12:15;;;;;;;4.00;3.15;;;;;;;;;;4754752;30;20056;-71
2022/12/10 03:14:42;;;;;;;4.78;2.92;;;;;;;;;;4755290;30;20048;-71
2022/12/10 03:17:08;;;;;;;4.55;3.30;;;;;;;;;;4754563;30;20050;-71
2022/12/10 03:19:41;;;;;;;3.80;3.35;;;;;;;;;;4754625;30;20134;-71
2022/12/10 03:22:07;;;;;;;3.85;3.10;;;;;;;;;;4754538;30;20055;-71
2022/12/10 03:24:35;;;;;;;4.38;3.53;;;;;;;;;;4754783;30;20048;-71
2022/12/10 03:27:03;;;;;;;4.90;3.90;;;;;;;;;;4754801;30;20048;-71
2022/12/10 03:29:33;;;;;;;4.68;3.85;;;;;;;;;;4755223;30;20055;-71
2022/12/10 03:32:00;;;;;;;4.25;3.53;;;;;;;;;;4754120;30;20068;-71
2022/12/10 03:34:26;;;;;;;6.28;4.25;;;;;;;;;;4754606;30;20048;-71
2022/12/10 03:36:53;;;;;;;5.63;4.85;;;;;;;;;;4754144;30;20190;-71
2022/12/10 03:39:19;;;;;;;5.75;5.07;;;;;;;;;;4754997;30;20051;-71
2022/12/10 03:41:45;;;;;;;6.07;5.47;;;;;;;;;;4754769;30;20067;-71
2022/12/10 03:44:12;;;;;;;4.93;4.38;;;;;;;;;;4754210;30;20075;-71
2022/12/10 03:46:38;;;;;;;5.65;5.05;;;;;;;;;;4754287;30;20060;-71
2022/12/10 03:49:04;;;;;;;7.65;5.25;;;;;;;;;;4755184;30;20097;-71
2022/12/10 03:51:30;;;;;;;6.60;4.55;;;;;;;;;;4754540;30;20115;-71
2022/12/10 03:53:57;;;;;;;7.18;5.53;;;;;;;;;;4753825;30;20577;-71
2022/12/10 03:56:23;;;;;;;6.97;5.30;;;;;;;;;;4754271;30;20059;-71
2022/12/10 03:58:49;;;;;;;7.35;6.45;;;;;;;;;;4754183;30;20047;-71
2022/12/10 04:01:15;;;;;;;5.88;4.95;;;;;;;;;;4754231;30;20568;-71
2022/12/10 04:03:42;;;;;;;6.22;4.82;;;;;;;;;;4754452;30;20075;-71
2022/12/10 04:06:10;;;;;;;5.65;4.57;;;;;;;;;;4754386;30;20052;-71
2022/12/10 04:08:36;;;;;;;6.63;4.65;;;;;;;;;;4754250;30;20055;-71
2022/12/10 04:11:04;;;;;;;6.60;5.57;;;;;;;;;;4754063;30;20055;-71
2022/12/10 04:16:29;;;;;;;8.05;6.15;;;;;;;;;;4754112;30;20143;-72
2022/12/10 04:18:56;;;;;;;7.63;6.53;;;;;;;;;;4754590;30;20497;-72
2022/12/10 04:26:56;;;;;;;7.28;5.80;;;;;;;;;;4753664;30;20050;-71
2022/12/10 04:29:26;;;;;;;9.98;6.32;;;;;;;;;;4753811;30;20049;-71
2022/12/10 04:31:53;;;;;;;7.72;6.35;;;;;;;;;;4753595;30;20048;-72
2022/12/10 04:34:19;;;;;;;8.45;6.28;;;;;;;;;;4752599;30;20456;-72
2022/12/10 04:36:45;;;;;;;9.23;6.90;;;;;;;;;;4753581;30;20113;-71
2022/12/10 04:39:12;;;;;;;8.18;6.57;;;;;;;;;;4754196;30;20059;-72
2022/12/10 04:41:41;;;;;;;7.78;6.07;;;;;;;;;;4753988;30;20048;-71
2022/12/10 04:44:08;;;;;;;7.03;5.15;;;;;;;;;;4754160;30;20040;-71
2022/12/10 04:46:34;;;;;;;8.30;5.50;;;;;;;;;;4753684;30;20056;-72
2022/12/10 04:49:01;;;;;;;6.72;5.05;;;;;;;;;;4754209;30;20055;-71
2022/12/10 04:51:27;;;;;;;6.75;5.40;;;;;;;;;;4754153;30;20063;-71
2022/12/10 04:53:53;;;;;;;7.97;5.72;;;;;;;;;;4753768;30;20048;-71
2022/12/10 04:56:19;;;;;;;8.70;6.38;;;;;;;;;;4753921;30;20040;-71
2022/12/10 04:58:45;;;;;;;7.63;6.82;;;;;;;;;;4753518;30;20078;-71
2022/12/10 05:01:12;;;;;;;6.97;5.82;;;;;;;;;;4753554;30;20416;-71
2022/12/10 05:03:39;;;;;;;7.38;6.35;;;;;;;;;;4753553;30;20044;-71
2022/12/10 05:06:06;;;;;;;9.88;7.95;;;;;;;;;;4756377;30;20131;-71
2022/12/10 05:08:32;;;;;;;10.45;8.25;;;;;;;;;;4757000;30;20134;-71
2022/12/10 05:11:05;;;;;;;11.23;9.52;;;;;;;;;;4757307;30;20040;-71
2022/12/10 05:13:31;;;;;;;11.73;9.30;;;;;;;;;;4757827;30;20130;-71
2022/12/10 05:15:57;;;;;;;12.65;9.63;;;;;;;;;;4756950;30;20409;-71
2022/12/10 05:18:23;;;;;;;12.90;10.15;;;;;;;;;;4757085;30;20079;-71
2022/12/10 05:20:50;;;;;;;13.15;10.32;;;;;;;;;;4757154;30;20056;-71
2022/12/10 05:23:29;;;;;;;12.57;9.73;;;;;;;;;;4769895;30;20125;-71
2022/12/10 05:26:15;;;;;;;14.10;10.20;;;;;;;;;;4773009;30;20052;-70
2022/12/10 05:28:54;;;;;;;12.45;9.70;;;;;;;;;;4764061;30;20058;-70
2022/12/10 05:31:25;;;;;;;13.68;10.30;;;;;;;;;;4763354;30;20064;-71
2022/12/10 05:33:51;;;;;;;12.32;9.77;;;;;;;;;;4760850;30;20044;-71
2022/12/10 05:36:19;;;;;;;12.48;9.85;;;;;;;;;;4766908;30;20051;-71
2022/12/10 05:38:45;;;;;;;14.35;10.00;;;;;;;;;;4762624;30;20052;-71
2022/12/10 05:41:13;;;;;;;13.07;9.75;;;;;;;;;;4772479;30;20135;-71
2022/12/10 05:43:39;;;;;;;13.90;10.40;;;;;;;;;;4760571;30;20146;-71
2022/12/10 05:46:08;;;;;;;12.32;9.20;;;;;;;;;;4772062;30;20047;-71
2022/12/10 05:48:34;;;;;;;12.25;9.05;;;;;;;;;;4762630;30;20078;-72
2022/12/10 05:51:04;;;;;;;12.07;9.25;;;;;;;;;;4762657;30;20054;-72
2022/12/10 05:53:30;;;;;;;13.07;9.45;;;;;;;;;;4759639;30;20063;-72
2022/12/10 05:56:01;;;;;;;10.82;9.00;;;;;;;;;;4762571;30;20449;-72
2022/12/10 05:58:28;;;;;;;15.20;10.52;;;;;;;;;;4766079;30;20048;-72
2022/12/10 06:00:55;;;;;;;13.57;9.70;;;;;;;;;;4768113;30;20052;-72
2022/12/10 06:03:21;;;;;;;17.98;10.15;;;;;;;;;;4755856;30;20048;-71
2022/12/10 06:05:47;;;;;;;13.32;10.00;;;;;;;;;;4756340;30;20048;-72
2022/12/10 06:08:13;;;;;;;13.05;9.77;;;;;;;;;;4755573;30;20082;-70
2022/12/10 06:10:39;;;;;;;13.50;9.32;;;;;;;;;;4756021;30;20061;-70
2022/12/10 06:13:06;;;;;;;11.68;8.55;;;;;;;;;;4756565;30;20127;-70
2022/12/10 06:15:32;;;;;;;12.75;8.82;;;;;;;;;;4755522;30;20047;-75
2022/12/10 06:17:59;;;;;;;11.98;8.98;;;;;;;;;;4758241;30;20059;-72
2022/12/10 06:20:25;;;;;;;11.75;8.60;;;;;;;;;;4767767;30;20112;-71
2022/12/10 06:22:52;;;;;;;12.27;8.32;;;;;;;;;;4773701;30;20082;-71
2022/12/10 06:25:18;;;;;;;9.38;7.63;;;;;;;;;;4773285;30;20130;-71
2022/12/10 06:27:45;;;;;;;8.57;6.50;;;;;;;;;;4773477;30;20062;-71
2022/12/10 06:30:11;;;;;;;9.68;6.75;;;;;;;;;;4773207;30;20054;-72
2022/12/10 06:32:37;;;;;;;8.43;6.45;;;;;;;;;;4773456;30;20052;-71
2022/12/10 06:35:04;;;;;;;7.03;5.78;;;;;;;;;;4772989;30;20048;-71
2022/12/10 06:37:30;;;;;;;8.48;6.50;;;;;;;;;;4772937;30;20593;-71
2022/12/10 06:39:56;;;;;;;8.40;6.40;;;;;;;;;;4773604;30;20138;-71
2022/12/10 06:42:22;;;;;;;8.57;5.55;;;;;;;;;;4773107;30;20058;-72
2022/12/10 06:44:48;;;;;;;8.40;6.30;;;;;;;;;;4772841;30;20592;-72
2022/12/10 06:47:15;;;;;;;7.50;6.10;;;;;;;;;;4771946;30;20056;-72
2022/12/10 06:49:41;;;;;;;8.50;5.97;;;;;;;;;;4773504;30;20047;-72
2022/12/10 06:52:07;;;;;;;8.02;5.72;;;;;;;;;;4773088;30;20047;-72
2022/12/10 06:54:33;;;;;;;7.22;5.90;;;;;;;;;;4773104;30;20125;-72
2022/12/10 06:57:00;;;;;;;10.63;6.50;;;;;;;;;;4770585;30;20136;-74
2022/12/10 06:59:26;;;;;;;10.05;6.57;;;;;;;;;;4755585;30;20044;-74
2022/12/10 07:01:52;;;;;;;9.85;6.97;;;;;;;;;;4754704;30;20059;-74
2022/12/10 07:04:18;;;;;;;7.63;6.20;;;;;;;;;;4754735;30;20101;-74
2022/12/10 07:06:44;;;;;;;10.27;7.18;;;;;;;;;;4754619;30;20052;-74
2022/12/10 07:09:11;;;;;;;9.20;7.28;;;;;;;;;;4753528;30;20052;-74
2022/12/10 07:11:37;;;;;;;8.82;6.95;;;;;;;;;;4754721;30;20126;-74
2022/12/10 07:14:03;;;;;;;8.98;6.57;;;;;;;;;;4755288;30;20248;-74
2022/12/10 07:16:30;;;;;;;8.25;6.60;;;;;;;;;;4755164;30;20040;-74
2022/12/10 07:18:57;;;;;;;54.67;37.10;;;;;;;;;;4755353;30;20048;-74
2022/12/10 07:21:25;;;;;;;11.27;7.63;;;;;;;;;;4755014;30;20087;-73
2022/12/10 07:23:53;;;;;;;7.10;5.60;;;;;;;;;;4754564;30;20047;-72
2022/12/10 07:26:19;;;;;;;7.68;5.30;;;;;;;;;;4754670;30;20045;-71
2022/12/10 07:28:46;;;;;;;6.55;5.47;;;;;;;;;;4754917;30;20059;-71
2022/12/10 07:31:12;;;;;;;7.30;5.85;;;;;;;;;;4754681;30;20489;-71
2022/12/10 07:33:38;;;;;;;7.90;5.88;;;;;;;;;;4755181;30;20457;-71
2022/12/10 07:36:09;;;;;;;7.40;6.20;;;;;;;;;;4754548;30;20513;-71
2022/12/10 07:38:35;;;;;;;8.02;6.05;;;;;;;;;;4754382;30;20059;-71
2022/12/10 07:41:05;;;;;;;7.18;5.82;;;;;;;;;;4754903;30;20048;-71
2022/12/10 07:43:33;;;;;;;7.82;5.78;;;;;;;;;;4755052;30;20127;-71
2022/12/10 07:46:10;;;;;;;7.30;5.85;;;;;;;;;;4754605;30;20585;-71
2022/12/10 07:48:39;;;;;;;8.40;6.20;;;;;;;;;;4754474;30;20083;-71
2022/12/10 07:51:06;;;;;;;11.52;7.07;;;;;;;;;;4754318;30;20052;-71
2022/12/10 07:53:33;;;;;;;9.05;6.05;;;;;;;;;;4754661;30;20115;-71
2022/12/10 07:55:59;;;;;;;11.68;7.38;;;;;;;;;;4754564;30;20079;-71
2022/12/10 07:58:25;;;;;;;9.40;6.28;;;;;;;;;;4754439;30;20048;-71
2022/12/10 08:00:52;;;;;;;8.55;6.38;;;;;;;;;;4754192;30;20101;-71
2022/12/10 08:03:18;;;;;;;17.02;10.35;;;;;;;;;;4754457;30;20113;-71
2022/12/10 08:05:44;;;;;;;10.18;6.93;;;;;;;;;;4754192;30;20048;-71
2022/12/10 08:08:10;;;;;;;16.38;9.00;;;;;;;;;;4753982;30;20059;-71
2022/12/10 08:10:37;;;;;;;14.32;9.00;;;;;;;;;;4754064;30;20106;-71
2022/12/10 08:13:03;;;;;;;11.68;7.65;;;;;;;;;;4754647;30;20143;-71
2022/12/10 08:15:30;;;;;;;12.40;7.68;;;;;;;;;;4754016;30;20430;-71
2022/12/10 08:17:56;;;;;;;10.77;7.43;;;;;;;;;;4753918;30;20052;-71
2022/12/10 08:20:23;;;;;;;12.82;8.20;;;;;;;;;;4753932;30;20409;-71
2022/12/10 08:22:49;;;;;;;12.75;7.75;;;;;;;;;;4753700;30;20052;-71
2022/12/10 08:25:15;;;;;;;13.70;8.57;;;;;;;;;;4754227;30;20048;-71
2022/12/10 08:27:41;;;;;;;12.63;7.97;;;;;;;;;;4754176;30;20129;-71
2022/12/10 08:30:08;;;;;;;15.00;8.45;;;;;;;;;;4754114;30;20061;-71
2022/12/10 08:32:34;;;;;;;10.18;7.20;;;;;;;;;;4753615;30;20505;-71
2022/12/10 08:35:00;;;;;;;11.48;7.47;;;;;;;;;;4754029;30;20044;-71
2022/12/10 08:37:26;;;;;;;10.70;7.38;;;;;;;;;;4753864;30;20040;-71
2022/12/10 08:39:52;;;;;;;9.82;6.78;;;;;;;;;;4753333;30;20044;-71
2022/12/10 08:42:19;;;;;;;8.43;6.68;;;;;;;;;;4762127;30;20547;-75
2022/12/10 08:44:45;;;;;;;9.40;6.70;;;;;;;;;;4771964;30;20040;-73
2022/12/10 08:47:11;;;;;;;10.10;7.22;;;;;;;;;;4771275;30;20068;-74
2022/12/10 08:49:37;;;;;;;13.60;7.75;;;;;;;;;;4771133;30;20058;-73
2022/12/10 08:52:04;;;;;;;14.48;8.73;;;;;;;;;;4770615;30;20059;-75
2022/12/10 08:54:30;;;;;;;11.63;7.20;;;;;;;;;;4771134;30;20086;-75
2022/12/10 08:56:57;;;;;;;19.10;9.70;;;;;;;;;;4771254;30;20047;-75
2022/12/10 08:59:23;;;;;;;11.30;7.60;;;;;;;;;;4771296;30;20088;-74
2022/12/10 09:01:49;;;;;;;9.15;6.30;;;;;;;;;;4771473;30;20051;-75
2022/12/10 09:04:15;;;;;;;9.90;6.32;;;;;;;;;;4770873;30;20052;-74
2022/12/10 09:06:41;;;;;;;10.05;6.47;;;;;;;;;;4771325;30;20048;-75
2022/12/10 09:09:08;;;;;;;10.35;6.15;;;;;;;;;;4771281;30;20071;-74
2022/12/10 09:11:34;;;;;;;10.65;6.38;;;;;;;;;;4770487;30;20054;-74
2022/12/10 09:14:01;;;;;;;7.63;5.75;;;;;;;;;;4771273;30;20043;-74
2022/12/10 09:16:31;;;;;;;8.75;5.40;;;;;;;;;;4771202;30;20047;-73
2022/12/10 09:18:58;;;;;;;13.60;6.85;;;;;;;;;;4771121;30;20052;-74
2022/12/10 09:21:24;;;;;;;11.38;6.70;;;;;;;;;;4770870;30;20044;-73
2022/12/10 09:23:51;;;;;;;7.72;5.07;;;;;;;;;;4770945;30;20047;-73
2022/12/10 09:26:17;;;;;;;7.30;5.28;;;;;;;;;;4771011;30;20046;-73
2022/12/10 09:28:44;;;;;;;8.60;5.07;;;;;;;;;;4771078;30;20047;-72
2022/12/10 09:31:10;;;;;;;7.35;5.20;;;;;;;;;;4770874;30;20492;-73
2022/12/10 09:33:37;;;;;;;6.70;5.13;;;;;;;;;;4770725;30;20051;-71
2022/12/10 09:36:06;;;;;;;9.95;6.10;;;;;;;;;;4771021;30;20059;-75
2022/12/10 09:38:37;;;;;;;7.65;5.60;;;;;;;;;;4770504;30;20052;-71
2022/12/10 09:41:04;;;;;;;9.50;5.95;;;;;;;;;;4771133;30;20051;-71
2022/12/10 09:43:53;;;;;;;9.15;6.38;;;;;;;;;;4770450;30;20104;-72
2022/12/10 09:46:40;;;;;;;9.85;6.35;;;;;;;;;;4770731;30;20068;-72
2022/12/10 09:49:26;;;;;;;10.63;6.93;;;;;;;;;;4770005;30;20044;-72
2022/12/10 09:51:56;;;;;;;8.90;6.22;;;;;;;;;;4751442;30;20090;-72
2022/12/10 09:54:24;;;;;;;9.85;7.00;;;;;;;;;;4774092;30;20044;-72
2022/12/10 09:56:51;;;;;;;10.52;7.07;;;;;;;;;;4774062;30;20083;-72
2022/12/10 09:59:22;;;;;;;9.43;6.93;;;;;;;;;;4773949;30;20051;-72
2022/12/10 10:01:48;;;;;;;;;;;;;;;;;;4774173;30;20385;-72
2022/12/10 10:04:14;;;;;;;12.00;7.00;;;;;;;;;;4773702;30;19970;-72
2022/12/10 10:06:41;;;;;;;10.07;6.53;;;;;;;;;;4773506;30;20055;-72
2022/12/10 10:09:07;;;;;;;9.52;6.95;;;;;;;;;;4774442;30;20132;-72
2022/12/10 10:11:35;;;;;;;11.77;7.55;;;;;;;;;;4773530;30;20421;-72
2022/12/10 10:14:04;;;;;;;12.43;7.78;;;;;;;;;;4773816;30;20112;-72
2022/12/10 10:16:45;;;;;;;12.98;8.95;;;;;;;;;;4773764;30;20052;-72
2022/12/10 10:19:16;;;;;;;12.27;7.63;;;;;;;;;;4773878;30;20527;-72
2022/12/10 10:21:44;;;;;;;13.57;9.05;;;;;;;;;;4773376;30;20043;-72
2022/12/10 10:24:17;;;;;;;12.00;7.85;;;;;;;;;;4774161;30;20043;-72
2022/12/10 10:26:45;;;;;;;11.13;8.10;;;;;;;;;;4773797;30;20053;-72
2022/12/10 10:29:13;;;;;;;13.13;8.88;;;;;;;;;;4773187;30;20043;-72
2022/12/10 10:31:40;;;;;;;11.77;8.05;;;;;;;;;;4773590;30;20126;-72
2022/12/10 10:34:13;;;;;;;11.45;8.48;;;;;;;;;;4773756;30;20055;-72
2022/12/10 10:36:40;;;;;;;11.38;8.68;;;;;;;;;;4773084;30;20055;-72
2022/12/10 10:39:23;;;;;;;13.38;9.07;;;;;;;;;;4773096;30;20055;-72
2022/12/10 10:41:52;;;;;;;13.35;8.68;;;;;;;;;;4773448;30;20127;-72
2022/12/10 10:44:22;;;;;;;12.13;8.55;;;;;;;;;;4773051;30;20047;-72
2022/12/10 10:46:50;;;;;;;13.43;8.95;;;;;;;;;;4773548;30;20097;-72
2022/12/10 10:49:27;;;;;;;12.75;8.77;;;;;;;;;;4773219;30;20443;-72
2022/12/10 10:51:55;;;;;;;12.27;8.63;;;;;;;;;;4773439;30;20052;-72
2022/12/10 10:54:51;;;;;;;11.38;8.15;;;;;;;;;;4773429;30;20039;-72
2022/12/10 10:57:49;;;;;;;11.10;8.02;;;;;;;;;;4764878;30;20135;-72
2022/12/10 11:00:22;;;;;;;11.68;8.00;;;;;;;;;;4752525;30;20048;-72
2022/12/10 11:02:48;;;;;;;10.75;7.72;;;;;;;;;;4772813;30;20569;-72
2022/12/10 11:05:23;;;;;;;11.43;8.10;;;;;;;;;;4773236;30;20051;-72
2022/12/10 11:07:57;;;;;;;12.45;8.55;;;;;;;;;;4772947;30;20055;-72
2022/12/10 11:10:24;;;;;;;12.05;8.23;;;;;;;;;;4773170;30;20043;-72
2022/12/10 11:12:56;;;;;;;11.55;8.00;;;;;;;;;;4773875;30;20044;-72
2022/12/10 11:15:22;;;;;;;11.82;8.60;;;;;;;;;;4772752;30;20134;-72
2022/12/10 11:17:49;;;;;;;11.50;7.90;;;;;;;;;;4773463;30;20052;-72
2022/12/10 11:20:17;;;;;;;13.10;8.52;;;;;;;;;;4773232;30;20128;-72
2022/12/10 11:22:52;;;;;;;14.40;8.95;;;;;;;;;;4772516;30;20055;-72
2022/12/10 11:25:20;;;;;;;14.13;9.07;;;;;;;;;;4772884;30;20059;-72
2022/12/10 11:27:46;;;;;;;14.25;9.43;;;;;;;;;;4773091;30;20079;-72
2022/12/10 11:30:13;;;;;;;14.27;9.35;;;;;;;;;;4772722;30;20055;-72
2022/12/10 11:32:42;;;;;;;11.80;8.75;;;;;;;;;;4772730;30;20047;-72
2022/12/10 11:35:26;;;;;;;14.02;8.93;;;;;;;;;;4772938;30;20048;-72
2022/12/10 11:37:52;;;;;;;15.85;9.55;;;;;;;;;;4772285;30;20097;-72
2022/12/10 11:40:37;;;;;;;13.60;9.50;;;;;;;;;;4772256;30;20396;-72
2022/12/10 11:43:06;;;;;;;18.65;11.07;;;;;;;;;;4773136;30;20086;-72
2022/12/10 11:45:47;;;;;;;14.07;9.27;;;;;;;;;;4772211;30;20400;-72
2022/12/10 11:48:13;;;;;;;12.38;8.43;;;;;;;;;;4772099;30;20056;-72
2022/12/10 11:50:47;;;;;;;18.50;11.30;;;;;;;;;;4772111;30;20040;-72
2022/12/10 11:53:19;;;;;;;16.35;10.45;;;;;;;;;;4772161;30;20062;-72
2022/12/10 11:56:02;;;;;;;10.52;7.95;;;;;;;;;;4766376;30;20591;-74
2022/12/10 11:58:47;;;;;;;12.00;9.10;;;;;;;;;;4754517;30;20086;-73
2022/12/10 12:01:24;;;;;;;14.10;9.35;;;;;;;;;;4767495;30;20055;-73
2022/12/10 12:04:17;;;;;;;11.23;8.38;;;;;;;;;;4768363;30;20048;-72
2022/12/10 12:06:43;;;;;;;12.35;8.43;;;;;;;;;;4753803;30;20464;-71
2022/12/10 12:09:21;;;;;;;12.55;8.10;;;;;;;;;;4758547;30;20053;-72
2022/12/10 12:11:53;;;;;;;10.73;7.75;;;;;;;;;;4762093;30;20059;-72
2022/12/10 12:14:24;;;;;;;9.65;7.30;;;;;;;;;;4747366;30;20065;-71
2022/12/10 12:17:01;;;;;;;9.68;7.03;;;;;;;;;;4759834;30;20078;-71
2022/12/10 12:19:39;;;;;;;12.23;8.02;;;;;;;;;;4757405;30;20182;-71
2022/12/10 12:22:23;;;;;;;9.25;6.88;;;;;;;;;;4760462;30;20056;-72
2022/12/10 12:24:51;;;;;;;10.30;7.28;;;;;;;;;;4771252;30;20052;-71
2022/12/10 12:27:17;;;;;;;10.75;7.55;;;;;;;;;;4760009;30;20048;-71
2022/12/10 12:29:59;;;;;;;10.93;7.55;;;;;;;;;;4750659;30;20052;-71
2022/12/10 12:32:35;;;;;;;21.20;10.95;;;;;;;;;;4752299;30;20055;-71
2022/12/10 12:35:12;;;;;;;9.95;7.32;;;;;;;;;;4753337;30;20512;-72
2022/12/10 12:37:47;;;;;;;8.50;7.05;;;;;;;;;;4763320;30;20071;-72
2022/12/10 12:40:32;;;;;;;10.13;7.35;;;;;;;;;;4770618;30;20524;-72
2022/12/10 12:43:09;;;;;;;12.15;7.63;;;;;;;;;;4770193;30;20123;-71
2022/12/10 12:45:43;;;;;;;9.75;7.43;;;;;;;;;;4763195;30;20059;-71
2022/12/10 12:48:24;;;;;;;10.55;7.20;;;;;;;;;;4770633;30;20085;-72
2022/12/10 12:51:02;;;;;;;10.95;7.55;;;;;;;;;;4770633;30;20060;-72
2022/12/10 12:53:28;;;;;;;8.68;6.70;;;;;;;;;;4770752;30;20131;-72
2022/12/10 12:56:09;;;;;;;8.13;6.57;;;;;;;;;;4770583;30;20048;-72
2022/12/10 12:58:35;;;;;;;;;;;;;;;;;;4769905;30;20137;-71
2022/12/10 13:01:08;;;;;;;10.05;7.95;;;;;;;;;;4770793;30;20009;-71
2022/12/10 13:03:42;;;;;;;11.13;7.82;;;;;;;;;;4770619;30;20158;-71
2022/12/10 13:06:21;;;;;;;10.80;7.57;;;;;;;;;;4770241;30;20123;-71
2022/12/10 13:08:53;;;;;;;11.57;8.50;;;;;;;;;;4770772;30;20058;-71
2022/12/10 13:11:40;;;;;;;10.00;7.15;;;;;;;;;;4770300;30;20067;-71
2022/12/10 13:14:09;;;;;;;9.18;7.30;;;;;;;;;;4770362;30;20075;-71
2022/12/10 13:16:38;;;;;;;10.15;7.05;;;;;;;;;;4769820;30;20071;-71
2022/12/10 13:19:20;;;;;;;10.77;7.65;;;;;;;;;;4770596;30;20066;-71
2022/12/10 13:21:54;;;;;;;9.60;7.03;;;;;;;;;;4758705;30;20072;-71
2022/12/10 13:24:40;;;;;;;7.35;6.15;;;;;;;;;;4750920;30;20051;-71
2022/12/10 13:27:14;;;;;;;8.25;6.28;;;;;;;;;;4749297;30;20165;-71
2022/12/10 13:29:52;;;;;;;9.23;6.60;;;;;;;;;;4756015;30;20063;-71
2022/12/10 13:32:42;;;;;;;8.13;5.97;;;;;;;;;;4755255;30;20052;-71
2022/12/10 13:35:08;;;;;;;7.18;6.10;;;;;;;;;;4767181;30;20063;-71
2022/12/10 13:37:54;;;;;;;8.88;6.85;;;;;;;;;;4770247;30;20100;-71
2022/12/10 13:40:23;;;;;;;8.93;6.75;;;;;;;;;;4755582;30;20119;-71
2022/12/10 13:45:41;;;;;;;7.85;6.05;;;;;;;;;;4755788;30;20543;-71
2022/12/10 13:48:22;;;;;;;8.57;6.70;;;;;;;;;;4755736;30;20067;-71
2022/12/10 13:50:50;;;;;;;10.25;6.85;;;;;;;;;;4766223;30;20356;-71
2022/12/10 13:53:16;;;;;;;8.52;6.72;;;;;;;;;;4768695;30;20056;-71
2022/12/10 13:56:01;;;;;;;8.32;6.43;;;;;;;;;;4766766;30;20072;-71
2022/12/10 13:58:45;;;;;;;9.85;6.63;;;;;;;;;;4754880;30;20126;-71
2022/12/10 14:01:15;;;;;;;8.20;5.97;;;;;;;;;;4758238;30;20059;-71
2022/12/10 14:03:59;;;;;;;6.85;5.68;;;;;;;;;;4754731;30;20061;-71
2022/12/10 14:06:26;;;;;;;10.73;6.80;;;;;;;;;;4754961;30;20519;-71
2022/12/10 14:09:09;;;;;;;9.20;6.63;;;;;;;;;;4758045;30;20077;-71
2022/12/10 14:11:40;;;;;;;9.00;6.45;;;;;;;;;;4769386;30;20177;-71
2022/12/10 14:14:10;;;;;;;7.78;5.95;;;;;;;;;;4755820;30;20081;-71
2022/12/10 14:16:38;;;;;;;9.30;6.68;;;;;;;;;;4755017;30;20040;-71
2022/12/10 14:19:06;;;;;;;8.43;6.00;;;;;;;;;;4760475;30;20055;-71
2022/12/10 14:21:33;;;;;;;7.43;5.50;;;;;;;;;;4755372;30;20082;-70
2022/12/10 14:23:59;;;;;;;8.65;5.63;;;;;;;;;;4754633;30;20505;-71
2022/12/10 14:26:32;;;;;;;7.47;5.68;;;;;;;;;;4754480;30;20044;-70
2022/12/10 14:29:08;;;;;;;7.90;5.65;;;;;;;;;;4755259;30;20048;-71
2022/12/10 14:31:36;;;;;;;8.23;5.32;;;;;;;;;;4754724;30;20044;-71
2022/12/10 14:34:06;;;;;;;7.18;5.43;;;;;;;;;;4764354;30;20136;-71
2022/12/10 14:36:40;;;;;;;11.65;8.43;;;;;;;;;;4772647;30;20044;-71
2022/12/10 14:39:14;;;;;;;10.05;7.05;;;;;;;;;;4766847;30;20113;-72
2022/12/10 14:41:40;;;;;;;7.22;5.63;;;;;;;;;;4761547;30;20055;-71
2022/12/10 14:44:06;;;;;;;13.55;9.40;;;;;;;;;;4754771;30;20141;-71
2022/12/10 14:46:32;;;;;;;8.18;6.63;;;;;;;;;;4758991;30;20067;-72
2022/12/10 14:48:59;;;;;;;7.70;6.15;;;;;;;;;;4760978;30;20131;-71
2022/12/10 14:51:27;;;;;;;7.15;5.28;;;;;;;;;;4754887;30;20062;-71
2022/12/10 14:53:55;;;;;;;8.45;6.25;;;;;;;;;;4754605;30;20055;-72
2022/12/10 14:56:30;;;;;;;19.33;14.05;;;;;;;;;;4754897;30;20056;-71
2022/12/10 14:59:10;;;;;;;8.80;6.07;;;;;;;;;;4756422;30;20092;-72
2022/12/10 15:01:37;;;;;;;8.90;6.10;;;;;;;;;;4759782;30;20056;-72